sensor_id;sensor_type;location;lat;lon;timestamp;temperature;humidity
43049;DHT22;28673;44.412;11.918;2023-08-31T00:00:42;18.60;98.70
43049;DHT22;28673;44.412;11.918;2023-08-31T00:03:08;18.60;98.70
43049;DHT22;28673;44.412;11.918;2023-08-31T00:05:42;18.60;98.80
43049;DHT22;28673;44.412;11.918;2023-08-31T00:08:09;18.60;98.90
43049;DHT22;28673;44.412;11.918;2023-08-31T00:10:37;18.50;98.90
43049;DHT22;28673;44.412;11.918;2023-08-31T00:13:03;18.50;98.90
43049;DHT22;28673;44.412;11.918;2023-08-31T00:15:30;18.50;99.00
43049;DHT22;28673;44.412;11.918;2023-08-31T00:17:58;18.40;99.00
43049;DHT22;28673;44.412;11.918;2023-08-31T00:20:25;18.50;99.10
43049;DHT22;28673;44.412;11.918;2023-08-31T00:22:50;18.40;99.10
43049;DHT22;28673;44.412;11.918;2023-08-31T00:25:16;18.40;99.20
43049;DHT22;28673;44.412;11.918;2023-08-31T00:27:43;18.40;99.30
43049;DHT22;28673;44.412;11.918;2023-08-31T00:30:10;18.40;99.30
43049;DHT22;28673;44.412;11.918;2023-08-31T00:32:37;18.30;99.40
43049;DHT22;28673;44.412;11.918;2023-08-31T00:35:05;18.30;99.40
43049;DHT22;28673;44.412;11.918;2023-08-31T00:37:31;18.30;99.50
43049;DHT22;28673;44.412;11.918;2023-08-31T00:39:57;18.30;99.60
43049;DHT22;28673;44.412;11.918;2023-08-31T00:42:23;18.30;99.60
43049;DHT22;28673;44.412;11.918;2023-08-31T00:44:50;18.20;99.70
43049;DHT22;28673;44.412;11.918;2023-08-31T00:47:16;18.20;99.70
43049;DHT22;28673;44.412;11.918;2023-08-31T00:49:43;18.20;99.80
43049;DHT22;28673;44.412;11.918;2023-08-31T00:52:09;18.20;99.80
43049;DHT22;28673;44.412;11.918;2023-08-31T00:54:35;18.10;99.90
43049;DHT22;28673;44.412;11.918;2023-08-31T00:57:02;18.10;99.90
43049;DHT22;28673;44.412;11.918;2023-08-31T00:59:29;18.10;99.90
43049;DHT22;28673;44.412;11.918;2023-08-31T01:02:06;18.10;99.90
43049;DHT22;28673;44.412;11.918;2023-08-31T01:07:19;18.10;99.90
43049;DHT22;28673;44.412;11.918;2023-08-31T01:12:44;18.10;99.90
43049;DHT22;28673;44.412;11.918;2023-08-31T01:15:14;18.00;99.90
43049;DHT22;28673;44.412;11.918;2023-08-31T01:17:47;18.00;99.90
43049;DHT22;28673;44.412;11.918;2023-08-31T01:20:27;18.00;99.90
43049;DHT22;28673;44.412;11.918;2023-08-31T01:23:02;18.00;99.90
43049;DHT22;28673;44.412;11.918;2023-08-31T01:25:30;18.00;99.90
43049;DHT22;28673;44.412;11.918;2023-08-31T01:27:57;17.90;99.90
43049;DHT22;28673;44.412;11.918;2023-08-31T01:30:24;17.90;99.90
43049;DHT22;28673;44.412;11.918;2023-08-31T01:32:50;17.90;99.90
43049;DHT22;28673;44.412;11.918;2023-08-31T01:35:17;17.90;99.90
43049;DHT22;28673;44.412;11.918;2023-08-31T01:37:50;17.90;99.90
43049;DHT22;28673;44.412;11.918;2023-08-31T01:40:22;17.90;99.90
43049;DHT22;28673;44.412;11.918;2023-08-31T01:42:50;17.90;99.90
43049;DHT22;28673;44.412;11.918;2023-08-31T01:45:19;17.90;99.90
43049;DHT22;28673;44.412;11.918;2023-08-31T01:47:46;17.90;99.90
43049;DHT22;28673;44.412;11.918;2023-08-31T01:50:12;17.80;99.90
43049;DHT22;28673;44.412;11.918;2023-08-31T01:52:39;17.80;99.90
43049;DHT22;28673;44.412;11.918;2023-08-31T01:55:05;17.80;99.90
43049;DHT22;28673;44.412;11.918;2023-08-31T01:57:32;17.70;99.90
43049;DHT22;28673;44.412;11.918;2023-08-31T02:00:12;17.80;99.90
43049;DHT22;28673;44.412;11.918;2023-08-31T02:02:41;17.80;99.90
43049;DHT22;28673;44.412;11.918;2023-08-31T02:05:08;17.70;99.90
43049;DHT22;28673;44.412;11.918;2023-08-31T02:07:34;17.70;99.90
43049;DHT22;28673;44.412;11.918;2023-08-31T02:10:01;17.70;99.90
43049;DHT22;28673;44.412;11.918;2023-08-31T02:12:27;17.70;99.90
43049;DHT22;28673;44.412;11.918;2023-08-31T02:14:53;17.70;99.90
43049;DHT22;28673;44.412;11.918;2023-08-31T02:17:19;17.70;99.90
43049;DHT22;28673;44.412;11.918;2023-08-31T02:19:46;17.70;99.90
43049;DHT22;28673;44.412;11.918;2023-08-31T02:22:12;17.60;99.90
43049;DHT22;28673;44.412;11.918;2023-08-31T02:24:39;17.70;99.90
43049;DHT22;28673;44.412;11.918;2023-08-31T02:27:05;17.60;99.90
43049;DHT22;28673;44.412;11.918;2023-08-31T02:29:31;17.60;99.90
43049;DHT22;28673;44.412;11.918;2023-08-31T02:31:57;17.60;99.90
43049;DHT22;28673;44.412;11.918;2023-08-31T02:34:23;17.50;99.90
43049;DHT22;28673;44.412;11.918;2023-08-31T02:36:50;17.60;99.90
43049;DHT22;28673;44.412;11.918;2023-08-31T02:39:16;17.60;99.90
43049;DHT22;28673;44.412;11.918;2023-08-31T02:41:42;17.50;99.90
43049;DHT22;28673;44.412;11.918;2023-08-31T02:44:08;17.50;99.90
43049;DHT22;28673;44.412;11.918;2023-08-31T02:46:39;17.50;99.90
43049;DHT22;28673;44.412;11.918;2023-08-31T02:49:06;17.50;99.90
43049;DHT22;28673;44.412;11.918;2023-08-31T02:51:32;17.40;99.90
43049;DHT22;28673;44.412;11.918;2023-08-31T02:53:58;17.50;99.90
43049;DHT22;28673;44.412;11.918;2023-08-31T02:56:24;17.50;99.90
43049;DHT22;28673;44.412;11.918;2023-08-31T02:58:50;17.40;99.90
43049;DHT22;28673;44.412;11.918;2023-08-31T03:01:16;17.40;99.90
43049;DHT22;28673;44.412;11.918;2023-08-31T03:03:47;17.40;99.90
43049;DHT22;28673;44.412;11.918;2023-08-31T03:06:13;17.30;99.90
43049;DHT22;28673;44.412;11.918;2023-08-31T03:08:41;17.40;99.90
43049;DHT22;28673;44.412;11.918;2023-08-31T03:11:07;17.40;99.90
43049;DHT22;28673;44.412;11.918;2023-08-31T03:13:35;17.30;99.90
43049;DHT22;28673;44.412;11.918;2023-08-31T03:16:02;17.30;99.90
43049;DHT22;28673;44.412;11.918;2023-08-31T03:18:29;17.30;99.90
43049;DHT22;28673;44.412;11.918;2023-08-31T03:20:55;17.30;99.90
43049;DHT22;28673;44.412;11.918;2023-08-31T03:23:26;17.30;99.90
43049;DHT22;28673;44.412;11.918;2023-08-31T03:25:58;17.30;99.90
43049;DHT22;28673;44.412;11.918;2023-08-31T03:28:26;17.30;99.90
43049;DHT22;28673;44.412;11.918;2023-08-31T03:30:57;17.30;99.90
43049;DHT22;28673;44.412;11.918;2023-08-31T03:33:24;17.30;99.90
43049;DHT22;28673;44.412;11.918;2023-08-31T03:35:53;17.30;99.90
43049;DHT22;28673;44.412;11.918;2023-08-31T03:38:20;17.20;99.90
43049;DHT22;28673;44.412;11.918;2023-08-31T03:40:55;17.20;99.90
43049;DHT22;28673;44.412;11.918;2023-08-31T03:43:26;17.20;99.90
43049;DHT22;28673;44.412;11.918;2023-08-31T03:45:56;17.20;99.90
43049;DHT22;28673;44.412;11.918;2023-08-31T03:48:26;17.20;99.90
43049;DHT22;28673;44.412;11.918;2023-08-31T03:50:53;17.20;99.90
43049;DHT22;28673;44.412;11.918;2023-08-31T03:53:21;17.20;99.90
43049;DHT22;28673;44.412;11.918;2023-08-31T03:55:56;17.20;99.90
43049;DHT22;28673;44.412;11.918;2023-08-31T03:58:23;17.10;99.90
43049;DHT22;28673;44.412;11.918;2023-08-31T04:00:54;17.10;99.90
43049;DHT22;28673;44.412;11.918;2023-08-31T04:03:20;17.10;99.90
43049;DHT22;28673;44.412;11.918;2023-08-31T04:05:47;17.10;99.90
43049;DHT22;28673;44.412;11.918;2023-08-31T04:08:13;17.10;99.90
43049;DHT22;28673;44.412;11.918;2023-08-31T04:10:47;17.00;99.90
43049;DHT22;28673;44.412;11.918;2023-08-31T04:13:14;17.00;99.90
43049;DHT22;28673;44.412;11.918;2023-08-31T04:15:40;17.00;99.90
43049;DHT22;28673;44.412;11.918;2023-08-31T04:18:07;17.00;99.90
43049;DHT22;28673;44.412;11.918;2023-08-31T04:20:33;17.00;99.90
43049;DHT22;28673;44.412;11.918;2023-08-31T04:22:59;17.00;99.90
43049;DHT22;28673;44.412;11.918;2023-08-31T04:25:28;17.00;99.90
43049;DHT22;28673;44.412;11.918;2023-08-31T04:27:54;17.00;99.90
43049;DHT22;28673;44.412;11.918;2023-08-31T04:30:22;16.90;99.90
43049;DHT22;28673;44.412;11.918;2023-08-31T04:32:48;16.90;99.90
43049;DHT22;28673;44.412;11.918;2023-08-31T04:35:14;16.90;99.90
43049;DHT22;28673;44.412;11.918;2023-08-31T04:37:40;16.90;99.90
43049;DHT22;28673;44.412;11.918;2023-08-31T04:40:07;16.90;99.90
43049;DHT22;28673;44.412;11.918;2023-08-31T04:42:34;16.90;99.90
43049;DHT22;28673;44.412;11.918;2023-08-31T04:45:00;16.80;99.90
43049;DHT22;28673;44.412;11.918;2023-08-31T04:47:26;16.80;99.90
43049;DHT22;28673;44.412;11.918;2023-08-31T04:49:52;16.80;99.90
43049;DHT22;28673;44.412;11.918;2023-08-31T04:52:18;16.80;99.90
43049;DHT22;28673;44.412;11.918;2023-08-31T04:54:44;16.80;99.90
43049;DHT22;28673;44.412;11.918;2023-08-31T04:57:12;16.80;99.90
43049;DHT22;28673;44.412;11.918;2023-08-31T04:59:38;16.80;99.90
43049;DHT22;28673;44.412;11.918;2023-08-31T05:02:07;16.80;99.90
43049;DHT22;28673;44.412;11.918;2023-08-31T05:04:36;16.80;99.90
43049;DHT22;28673;44.412;11.918;2023-08-31T05:07:01;16.80;99.90
43049;DHT22;28673;44.412;11.918;2023-08-31T05:09:29;16.80;99.90
43049;DHT22;28673;44.412;11.918;2023-08-31T05:11:58;16.80;99.90
43049;DHT22;28673;44.412;11.918;2023-08-31T05:14:32;16.80;99.90
43049;DHT22;28673;44.412;11.918;2023-08-31T05:16:58;16.90;99.90
43049;DHT22;28673;44.412;11.918;2023-08-31T05:19:24;16.90;99.90
43049;DHT22;28673;44.412;11.918;2023-08-31T05:21:50;16.90;99.90
43049;DHT22;28673;44.412;11.918;2023-08-31T05:24:16;16.90;99.90
43049;DHT22;28673;44.412;11.918;2023-08-31T05:26:42;16.90;99.90
43049;DHT22;28673;44.412;11.918;2023-08-31T05:29:07;17.00;99.90
43049;DHT22;28673;44.412;11.918;2023-08-31T05:31:36;17.00;99.90
43049;DHT22;28673;44.412;11.918;2023-08-31T05:34:03;17.00;99.90
43049;DHT22;28673;44.412;11.918;2023-08-31T05:36:28;17.10;99.90
43049;DHT22;28673;44.412;11.918;2023-08-31T05:38:57;17.10;99.90
43049;DHT22;28673;44.412;11.918;2023-08-31T05:41:24;17.10;99.90
43049;DHT22;28673;44.412;11.918;2023-08-31T05:43:50;17.20;99.90
43049;DHT22;28673;44.412;11.918;2023-08-31T05:46:16;17.20;99.90
43049;DHT22;28673;44.412;11.918;2023-08-31T05:48:42;17.30;99.90
43049;DHT22;28673;44.412;11.918;2023-08-31T05:51:09;17.40;99.90
43049;DHT22;28673;44.412;11.918;2023-08-31T05:53:35;17.40;99.90
43049;DHT22;28673;44.412;11.918;2023-08-31T05:56:01;17.50;99.90
43049;DHT22;28673;44.412;11.918;2023-08-31T05:58:33;17.60;99.90
43049;DHT22;28673;44.412;11.918;2023-08-31T06:01:01;17.70;99.90
43049;DHT22;28673;44.412;11.918;2023-08-31T06:03:31;17.80;99.90
43049;DHT22;28673;44.412;11.918;2023-08-31T06:06:01;17.90;99.90
43049;DHT22;28673;44.412;11.918;2023-08-31T06:08:27;18.00;99.90
43049;DHT22;28673;44.412;11.918;2023-08-31T06:10:54;18.20;99.90
43049;DHT22;28673;44.412;11.918;2023-08-31T06:13:22;18.20;99.90
43049;DHT22;28673;44.412;11.918;2023-08-31T06:15:48;18.30;99.90
43049;DHT22;28673;44.412;11.918;2023-08-31T06:18:14;18.40;99.90
43049;DHT22;28673;44.412;11.918;2023-08-31T06:20:41;18.50;99.90
43049;DHT22;28673;44.412;11.918;2023-08-31T06:23:07;18.60;99.90
43049;DHT22;28673;44.412;11.918;2023-08-31T06:25:33;18.70;99.90
43049;DHT22;28673;44.412;11.918;2023-08-31T06:27:59;18.80;99.90
43049;DHT22;28673;44.412;11.918;2023-08-31T06:30:26;18.90;99.90
43049;DHT22;28673;44.412;11.918;2023-08-31T06:32:52;19.00;99.90
43049;DHT22;28673;44.412;11.918;2023-08-31T06:35:18;19.10;99.90
43049;DHT22;28673;44.412;11.918;2023-08-31T06:37:45;19.20;99.90
43049;DHT22;28673;44.412;11.918;2023-08-31T06:40:12;19.30;99.90
43049;DHT22;28673;44.412;11.918;2023-08-31T06:42:39;19.40;99.90
43049;DHT22;28673;44.412;11.918;2023-08-31T06:45:06;19.50;99.90
43049;DHT22;28673;44.412;11.918;2023-08-31T06:47:33;19.60;99.90
43049;DHT22;28673;44.412;11.918;2023-08-31T06:50:09;19.70;99.90
43049;DHT22;28673;44.412;11.918;2023-08-31T06:52:35;19.80;99.90
43049;DHT22;28673;44.412;11.918;2023-08-31T06:55:02;20.00;99.90
43049;DHT22;28673;44.412;11.918;2023-08-31T06:57:38;20.10;99.90
43049;DHT22;28673;44.412;11.918;2023-08-31T07:00:04;20.20;99.90
43049;DHT22;28673;44.412;11.918;2023-08-31T07:02:32;20.30;99.90
43049;DHT22;28673;44.412;11.918;2023-08-31T07:05:00;20.50;99.90
43049;DHT22;28673;44.412;11.918;2023-08-31T07:07:27;20.60;99.90
43049;DHT22;28673;44.412;11.918;2023-08-31T07:09:53;20.80;99.90
43049;DHT22;28673;44.412;11.918;2023-08-31T07:12:20;20.90;99.90
43049;DHT22;28673;44.412;11.918;2023-08-31T07:14:46;21.00;99.90
43049;DHT22;28673;44.412;11.918;2023-08-31T07:17:12;21.10;99.90
43049;DHT22;28673;44.412;11.918;2023-08-31T07:19:38;21.20;99.90
43049;DHT22;28673;44.412;11.918;2023-08-31T07:22:05;21.30;99.90
43049;DHT22;28673;44.412;11.918;2023-08-31T07:24:32;21.50;99.90
43049;DHT22;28673;44.412;11.918;2023-08-31T07:27:03;21.60;99.90
43049;DHT22;28673;44.412;11.918;2023-08-31T07:29:29;21.70;99.90
43049;DHT22;28673;44.412;11.918;2023-08-31T07:31:55;21.80;99.90
43049;DHT22;28673;44.412;11.918;2023-08-31T07:34:21;21.90;99.90
43049;DHT22;28673;44.412;11.918;2023-08-31T07:36:47;22.10;99.70
43049;DHT22;28673;44.412;11.918;2023-08-31T07:39:13;22.20;99.40
43049;DHT22;28673;44.412;11.918;2023-08-31T07:41:39;22.30;99.30
43049;DHT22;28673;44.412;11.918;2023-08-31T07:44:06;22.40;99.10
43049;DHT22;28673;44.412;11.918;2023-08-31T07:46:32;22.50;98.80
43049;DHT22;28673;44.412;11.918;2023-08-31T07:48:58;22.60;98.40
43049;DHT22;28673;44.412;11.918;2023-08-31T07:51:24;22.80;98.20
43049;DHT22;28673;44.412;11.918;2023-08-31T07:53:51;22.90;97.50
43049;DHT22;28673;44.412;11.918;2023-08-31T07:56:17;23.10;97.50
43049;DHT22;28673;44.412;11.918;2023-08-31T07:58:43;23.20;97.20
43049;DHT22;28673;44.412;11.918;2023-08-31T08:01:09;23.40;96.70
43049;DHT22;28673;44.412;11.918;2023-08-31T08:03:35;23.60;96.40
43049;DHT22;28673;44.412;11.918;2023-08-31T08:06:01;23.80;95.70
43049;DHT22;28673;44.412;11.918;2023-08-31T08:08:26;24.10;95.40
43049;DHT22;28673;44.412;11.918;2023-08-31T08:10:53;24.30;94.90
43049;DHT22;28673;44.412;11.918;2023-08-31T08:13:19;24.50;94.10
43049;DHT22;28673;44.412;11.918;2023-08-31T08:15:47;24.60;93.50
43049;DHT22;28673;44.412;11.918;2023-08-31T08:18:12;24.80;93.10
43049;DHT22;28673;44.412;11.918;2023-08-31T08:20:38;24.80;92.70
43049;DHT22;28673;44.412;11.918;2023-08-31T08:23:05;24.90;92.50
43049;DHT22;28673;44.412;11.918;2023-08-31T08:25:31;25.00;92.40
43049;DHT22;28673;44.412;11.918;2023-08-31T08:27:57;25.20;92.40
43049;DHT22;28673;44.412;11.918;2023-08-31T08:30:23;25.30;92.10
43049;DHT22;28673;44.412;11.918;2023-08-31T08:32:48;25.40;92.00
43049;DHT22;28673;44.412;11.918;2023-08-31T08:35:14;25.50;91.50
43049;DHT22;28673;44.412;11.918;2023-08-31T08:37:40;25.70;91.10
43049;DHT22;28673;44.412;11.918;2023-08-31T08:40:07;25.90;90.80
43049;DHT22;28673;44.412;11.918;2023-08-31T08:42:43;26.10;90.70
43049;DHT22;28673;44.412;11.918;2023-08-31T08:45:15;26.30;90.10
43049;DHT22;28673;44.412;11.918;2023-08-31T08:47:43;26.50;89.40
43049;DHT22;28673;44.412;11.918;2023-08-31T08:50:11;26.70;85.70
43049;DHT22;28673;44.412;11.918;2023-08-31T08:52:37;27.00;87.30
43049;DHT22;28673;44.412;11.918;2023-08-31T08:55:04;27.30;86.30
43049;DHT22;28673;44.412;11.918;2023-08-31T08:57:31;27.50;86.10
43049;DHT22;28673;44.412;11.918;2023-08-31T08:59:58;27.70;82.80
43049;DHT22;28673;44.412;11.918;2023-08-31T09:02:24;27.90;84.20
43049;DHT22;28673;44.412;11.918;2023-08-31T09:04:50;28.10;83.90
43049;DHT22;28673;44.412;11.918;2023-08-31T09:07:23;28.30;83.10
43049;DHT22;28673;44.412;11.918;2023-08-31T09:09:51;28.50;83.00
43049;DHT22;28673;44.412;11.918;2023-08-31T09:12:17;28.80;82.80
43049;DHT22;28673;44.412;11.918;2023-08-31T09:14:43;28.90;82.20
43049;DHT22;28673;44.412;11.918;2023-08-31T09:17:09;29.00;81.50
43049;DHT22;28673;44.412;11.918;2023-08-31T09:19:35;29.20;80.30
43049;DHT22;28673;44.412;11.918;2023-08-31T09:22:01;29.30;80.50
43049;DHT22;28673;44.412;11.918;2023-08-31T09:24:27;29.60;80.40
43049;DHT22;28673;44.412;11.918;2023-08-31T09:26:58;29.70;80.20
43049;DHT22;28673;44.412;11.918;2023-08-31T09:29:25;29.80;79.30
43049;DHT22;28673;44.412;11.918;2023-08-31T09:31:50;30.00;79.10
43049;DHT22;28673;44.412;11.918;2023-08-31T09:34:17;30.10;78.60
43049;DHT22;28673;44.412;11.918;2023-08-31T09:36:44;30.20;76.90
43049;DHT22;28673;44.412;11.918;2023-08-31T09:39:10;30.40;77.40
43049;DHT22;28673;44.412;11.918;2023-08-31T09:41:56;30.40;77.10
43049;DHT22;28673;44.412;11.918;2023-08-31T09:44:22;30.60;75.20
43049;DHT22;28673;44.412;11.918;2023-08-31T09:46:48;30.70;76.40
43049;DHT22;28673;44.412;11.918;2023-08-31T09:49:16;30.90;76.50
43049;DHT22;28673;44.412;11.918;2023-08-31T09:51:45;31.10;76.70
43049;DHT22;28673;44.412;11.918;2023-08-31T09:54:29;31.30;75.80
43049;DHT22;28673;44.412;11.918;2023-08-31T09:56:56;31.50;74.90
43049;DHT22;28673;44.412;11.918;2023-08-31T09:59:24;31.70;75.50
43049;DHT22;28673;44.412;11.918;2023-08-31T10:01:51;31.90;74.90
43049;DHT22;28673;44.412;11.918;2023-08-31T10:04:17;32.00;73.70
43049;DHT22;28673;44.412;11.918;2023-08-31T10:06:43;32.10;74.00
43049;DHT22;28673;44.412;11.918;2023-08-31T10:09:09;32.30;72.80
43049;DHT22;28673;44.412;11.918;2023-08-31T10:11:38;32.30;72.50
43049;DHT22;28673;44.412;11.918;2023-08-31T10:14:04;32.40;72.30
43049;DHT22;28673;44.412;11.918;2023-08-31T10:16:30;32.50;72.10
43049;DHT22;28673;44.412;11.918;2023-08-31T10:18:58;32.70;71.70
43049;DHT22;28673;44.412;11.918;2023-08-31T10:21:24;32.80;70.90
43049;DHT22;28673;44.412;11.918;2023-08-31T10:23:51;32.90;70.30
43049;DHT22;28673;44.412;11.918;2023-08-31T10:26:28;33.10;70.30
43049;DHT22;28673;44.412;11.918;2023-08-31T10:28:54;33.30;69.60
43049;DHT22;28673;44.412;11.918;2023-08-31T10:31:20;33.50;69.10
43049;DHT22;28673;44.412;11.918;2023-08-31T10:34:00;33.50;68.60
43049;DHT22;28673;44.412;11.918;2023-08-31T10:36:40;33.60;67.30
43049;DHT22;28673;44.412;11.918;2023-08-31T10:39:17;33.70;68.10
43049;DHT22;28673;44.412;11.918;2023-08-31T10:41:56;33.90;67.60
43049;DHT22;28673;44.412;11.918;2023-08-31T10:44:23;34.10;65.40
43049;DHT22;28673;44.412;11.918;2023-08-31T10:46:50;34.10;67.30
43049;DHT22;28673;44.412;11.918;2023-08-31T10:49:19;34.20;66.20
43049;DHT22;28673;44.412;11.918;2023-08-31T10:51:48;34.30;66.20
43049;DHT22;28673;44.412;11.918;2023-08-31T10:54:21;34.40;66.10
43049;DHT22;28673;44.412;11.918;2023-08-31T10:59:48;34.60;65.50
43049;DHT22;28673;44.412;11.918;2023-08-31T11:02:35;34.80;65.40
43049;DHT22;28673;44.412;11.918;2023-08-31T11:05:04;35.10;65.20
43049;DHT22;28673;44.412;11.918;2023-08-31T11:07:31;35.40;65.30
43049;DHT22;28673;44.412;11.918;2023-08-31T11:12:40;35.50;63.20
43049;DHT22;28673;44.412;11.918;2023-08-31T11:15:07;35.60;64.10
43049;DHT22;28673;44.412;11.918;2023-08-31T11:17:33;35.60;63.40
43049;DHT22;28673;44.412;11.918;2023-08-31T11:20:00;35.80;63.20
43049;DHT22;28673;44.412;11.918;2023-08-31T11:22:26;35.80;63.20
43049;DHT22;28673;44.412;11.918;2023-08-31T11:24:53;35.70;63.10
43049;DHT22;28673;44.412;11.918;2023-08-31T11:27:20;35.80;62.30
43049;DHT22;28673;44.412;11.918;2023-08-31T11:29:46;35.80;62.50
43049;DHT22;28673;44.412;11.918;2023-08-31T11:32:12;35.80;62.20
43049;DHT22;28673;44.412;11.918;2023-08-31T11:34:44;35.80;61.90
43049;DHT22;28673;44.412;11.918;2023-08-31T11:37:13;35.80;61.90
43049;DHT22;28673;44.412;11.918;2023-08-31T11:39:51;35.80;62.10
43049;DHT22;28673;44.412;11.918;2023-08-31T11:42:20;36.10;61.80
43049;DHT22;28673;44.412;11.918;2023-08-31T11:44:47;36.30;62.10
43049;DHT22;28673;44.412;11.918;2023-08-31T11:47:14;36.30;60.90
43049;DHT22;28673;44.412;11.918;2023-08-31T11:49:43;36.30;60.80
43049;DHT22;28673;44.412;11.918;2023-08-31T11:52:11;36.40;60.10
43049;DHT22;28673;44.412;11.918;2023-08-31T11:54:42;36.50;61.40
43049;DHT22;28673;44.412;11.918;2023-08-31T11:57:12;36.70;60.80
43049;DHT22;28673;44.412;11.918;2023-08-31T11:59:38;36.50;59.80
43049;DHT22;28673;44.412;11.918;2023-08-31T12:02:08;36.30;60.50
43049;DHT22;28673;44.412;11.918;2023-08-31T12:04:42;36.30;61.30
43049;DHT22;28673;44.412;11.918;2023-08-31T12:07:15;36.50;60.10
43049;DHT22;28673;44.412;11.918;2023-08-31T12:09:43;36.60;60.30
43049;DHT22;28673;44.412;11.918;2023-08-31T12:12:17;36.70;60.50
43049;DHT22;28673;44.412;11.918;2023-08-31T12:14:45;36.80;59.60
43049;DHT22;28673;44.412;11.918;2023-08-31T12:17:13;36.70;59.70
43049;DHT22;28673;44.412;11.918;2023-08-31T12:19:39;36.60;59.80
43049;DHT22;28673;44.412;11.918;2023-08-31T12:22:05;36.40;59.90
43049;DHT22;28673;44.412;11.918;2023-08-31T12:24:41;36.20;60.00
43049;DHT22;28673;44.412;11.918;2023-08-31T12:27:08;36.10;59.90
43049;DHT22;28673;44.412;11.918;2023-08-31T12:29:35;36.10;60.30
43049;DHT22;28673;44.412;11.918;2023-08-31T12:32:01;36.30;59.80
43049;DHT22;28673;44.412;11.918;2023-08-31T12:34:31;36.60;59.70
43049;DHT22;28673;44.412;11.918;2023-08-31T12:36:57;36.60;59.80
43049;DHT22;28673;44.412;11.918;2023-08-31T12:39:27;36.70;60.10
43049;DHT22;28673;44.412;11.918;2023-08-31T12:41:53;36.90;60.30
43049;DHT22;28673;44.412;11.918;2023-08-31T12:44:19;37.00;59.60
43049;DHT22;28673;44.412;11.918;2023-08-31T12:46:51;37.20;59.30
43049;DHT22;28673;44.412;11.918;2023-08-31T12:49:18;37.50;59.00
43049;DHT22;28673;44.412;11.918;2023-08-31T12:51:46;37.60;58.80
43049;DHT22;28673;44.412;11.918;2023-08-31T12:54:12;37.80;58.70
43049;DHT22;28673;44.412;11.918;2023-08-31T12:56:38;37.90;58.20
43049;DHT22;28673;44.412;11.918;2023-08-31T12:59:06;37.90;58.30
43049;DHT22;28673;44.412;11.918;2023-08-31T13:01:32;37.50;56.20
43049;DHT22;28673;44.412;11.918;2023-08-31T13:03:59;36.80;58.30
43049;DHT22;28673;44.412;11.918;2023-08-31T13:06:25;36.60;59.10
43049;DHT22;28673;44.412;11.918;2023-08-31T13:08:52;36.20;59.10
43049;DHT22;28673;44.412;11.918;2023-08-31T13:11:18;36.10;59.50
43049;DHT22;28673;44.412;11.918;2023-08-31T13:13:49;35.90;59.40
43049;DHT22;28673;44.412;11.918;2023-08-31T13:16:17;35.80;59.80
43049;DHT22;28673;44.412;11.918;2023-08-31T13:18:42;35.80;59.50
43049;DHT22;28673;44.412;11.918;2023-08-31T13:21:08;35.80;59.00
43049;DHT22;28673;44.412;11.918;2023-08-31T13:23:34;36.00;59.00
43049;DHT22;28673;44.412;11.918;2023-08-31T13:26:00;36.30;58.90
43049;DHT22;28673;44.412;11.918;2023-08-31T13:28:26;36.50;59.20
43049;DHT22;28673;44.412;11.918;2023-08-31T13:30:58;36.70;58.80
43049;DHT22;28673;44.412;11.918;2023-08-31T13:33:26;36.70;58.60
43049;DHT22;28673;44.412;11.918;2023-08-31T13:35:57;36.40;58.40
43049;DHT22;28673;44.412;11.918;2023-08-31T13:38:24;36.00;58.70
43049;DHT22;28673;44.412;11.918;2023-08-31T13:40:54;36.00;59.20
43049;DHT22;28673;44.412;11.918;2023-08-31T13:43:22;35.80;58.70
43049;DHT22;28673;44.412;11.918;2023-08-31T13:45:48;35.70;58.70
43049;DHT22;28673;44.412;11.918;2023-08-31T13:48:14;35.70;58.60
43049;DHT22;28673;44.412;11.918;2023-08-31T13:50:40;35.70;58.80
43049;DHT22;28673;44.412;11.918;2023-08-31T13:53:06;35.90;59.40
43049;DHT22;28673;44.412;11.918;2023-08-31T13:55:32;35.80;59.10
43049;DHT22;28673;44.412;11.918;2023-08-31T13:58:09;35.90;59.50
43049;DHT22;28673;44.412;11.918;2023-08-31T14:00:35;36.10;58.00
43049;DHT22;28673;44.412;11.918;2023-08-31T14:03:02;36.10;59.00
43049;DHT22;28673;44.412;11.918;2023-08-31T14:05:29;36.20;59.10
43049;DHT22;28673;44.412;11.918;2023-08-31T14:07:56;36.30;58.80
43049;DHT22;28673;44.412;11.918;2023-08-31T14:10:24;36.30;58.70
43049;DHT22;28673;44.412;11.918;2023-08-31T14:12:50;36.40;58.70
43049;DHT22;28673;44.412;11.918;2023-08-31T14:15:16;36.40;58.50
43049;DHT22;28673;44.412;11.918;2023-08-31T14:17:42;36.40;58.40
43049;DHT22;28673;44.412;11.918;2023-08-31T14:20:08;36.50;58.40
43049;DHT22;28673;44.412;11.918;2023-08-31T14:22:35;36.40;58.60
43049;DHT22;28673;44.412;11.918;2023-08-31T14:25:03;36.40;59.80
43049;DHT22;28673;44.412;11.918;2023-08-31T14:27:29;36.40;58.80
43049;DHT22;28673;44.412;11.918;2023-08-31T14:29:58;36.40;58.60
43049;DHT22;28673;44.412;11.918;2023-08-31T14:32:24;36.40;58.10
43049;DHT22;28673;44.412;11.918;2023-08-31T14:34:54;36.30;58.90
43049;DHT22;28673;44.412;11.918;2023-08-31T14:37:20;36.30;59.40
43049;DHT22;28673;44.412;11.918;2023-08-31T14:39:46;36.20;58.30
43049;DHT22;28673;44.412;11.918;2023-08-31T14:42:15;36.20;59.60
43049;DHT22;28673;44.412;11.918;2023-08-31T14:44:45;36.30;59.30
43049;DHT22;28673;44.412;11.918;2023-08-31T14:47:17;36.40;59.60
43049;DHT22;28673;44.412;11.918;2023-08-31T14:49:43;36.60;58.80
43049;DHT22;28673;44.412;11.918;2023-08-31T14:52:09;36.70;59.60
43049;DHT22;28673;44.412;11.918;2023-08-31T14:54:35;36.30;60.10
43049;DHT22;28673;44.412;11.918;2023-08-31T14:57:01;35.90;60.70
43049;DHT22;28673;44.412;11.918;2023-08-31T14:59:33;35.30;61.10
43049;DHT22;28673;44.412;11.918;2023-08-31T15:02:01;34.70;62.00
43049;DHT22;28673;44.412;11.918;2023-08-31T15:04:34;34.10;62.70
43049;DHT22;28673;44.412;11.918;2023-08-31T15:07:00;33.60;63.50
43049;DHT22;28673;44.412;11.918;2023-08-31T15:09:26;33.10;64.20
43049;DHT22;28673;44.412;11.918;2023-08-31T15:11:52;32.70;64.80
43049;DHT22;28673;44.412;11.918;2023-08-31T15:14:21;32.40;65.50
43049;DHT22;28673;44.412;11.918;2023-08-31T15:16:47;32.00;66.20
43049;DHT22;28673;44.412;11.918;2023-08-31T15:19:13;31.50;66.40
43049;DHT22;28673;44.412;11.918;2023-08-31T15:21:38;31.30;67.10
43049;DHT22;28673;44.412;11.918;2023-08-31T15:24:05;31.00;67.80
43049;DHT22;28673;44.412;11.918;2023-08-31T15:26:30;30.60;67.90
43049;DHT22;28673;44.412;11.918;2023-08-31T15:28:56;30.40;68.60